sensor_id;sensor_type;location;lat;lon;timestamp;temperature;humidity
8178;DHT22;4130;48.740;9.132;2022-10-30T00:02:12;12.90;99.90
8178;DHT22;4130;48.740;9.132;2022-10-30T00:04:39;12.90;99.90
8178;DHT22;4130;48.740;9.132;2022-10-30T00:07:07;12.90;99.90
8178;DHT22;4130;48.740;9.132;2022-10-30T00:09:34;12.90;99.90
8178;DHT22;4130;48.740;9.132;2022-10-30T00:12:01;12.90;99.90
8178;DHT22;4130;48.740;9.132;2022-10-30T00:14:28;12.90;99.90
8178;DHT22;4130;48.740;9.132;2022-10-30T00:16:55;12.80;99.90
8178;DHT22;4130;48.740;9.132;2022-10-30T00:19:22;12.80;99.90
8178;DHT22;4130;48.740;9.132;2022-10-30T00:21:48;12.80;99.90
8178;DHT22;4130;48.740;9.132;2022-10-30T00:24:16;12.60;99.90
8178;DHT22;4130;48.740;9.132;2022-10-30T00:26:43;12.70;99.90
8178;DHT22;4130;48.740;9.132;2022-10-30T00:29:10;12.80;99.90
8178;DHT22;4130;48.740;9.132;2022-10-30T00:31:37;12.70;99.90
8178;DHT22;4130;48.740;9.132;2022-10-30T00:34:04;12.70;99.90
8178;DHT22;4130;48.740;9.132;2022-10-30T00:36:31;12.70;99.90
8178;DHT22;4130;48.740;9.132;2022-10-30T00:38:58;13.00;99.90
8178;DHT22;4130;48.740;9.132;2022-10-30T00:41:26;12.80;99.90
8178;DHT22;4130;48.740;9.132;2022-10-30T00:43:53;12.80;99.90
8178;DHT22;4130;48.740;9.132;2022-10-30T00:46:23;12.90;99.90
8178;DHT22;4130;48.740;9.132;2022-10-30T00:48:57;12.90;99.90
8178;DHT22;4130;48.740;9.132;2022-10-30T00:51:24;12.90;99.90
8178;DHT22;4130;48.740;9.132;2022-10-30T00:53:56;12.80;99.90
8178;DHT22;4130;48.740;9.132;2022-10-30T00:56:27;12.90;99.90
8178;DHT22;4130;48.740;9.132;2022-10-30T00:58:59;12.70;99.90
8178;DHT22;4130;48.740;9.132;2022-10-30T01:01:28;12.70;99.90
8178;DHT22;4130;48.740;9.132;2022-10-30T01:03:59;12.70;99.90
8178;DHT22;4130;48.740;9.132;2022-10-30T01:06:33;12.70;99.90
8178;DHT22;4130;48.740;9.132;2022-10-30T01:09:02;12.70;99.90
8178;DHT22;4130;48.740;9.132;2022-10-30T01:11:31;12.70;99.90
8178;DHT22;4130;48.740;9.132;2022-10-30T01:14:01;12.70;99.90
8178;DHT22;4130;48.740;9.132;2022-10-30T01:16:47;12.70;99.90
8178;DHT22;4130;48.740;9.132;2022-10-30T01:19:25;12.60;99.90
8178;DHT22;4130;48.740;9.132;2022-10-30T01:22:06;12.60;99.90
8178;DHT22;4130;48.740;9.132;2022-10-30T01:24:45;12.70;99.90
8178;DHT22;4130;48.740;9.132;2022-10-30T01:27:29;12.60;99.90
8178;DHT22;4130;48.740;9.132;2022-10-30T01:30:07;12.60;99.90
8178;DHT22;4130;48.740;9.132;2022-10-30T01:32:50;12.60;99.90
8178;DHT22;4130;48.740;9.132;2022-10-30T01:35:22;12.60;99.90
8178;DHT22;4130;48.740;9.132;2022-10-30T01:37:55;12.60;99.90
8178;DHT22;4130;48.740;9.132;2022-10-30T01:40:23;12.60;99.90
8178;DHT22;4130;48.740;9.132;2022-10-30T01:42:53;12.50;99.90
8178;DHT22;4130;48.740;9.132;2022-10-30T01:45:29;12.50;99.90
8178;DHT22;4130;48.740;9.132;2022-10-30T01:48:14;12.50;99.90
8178;DHT22;4130;48.740;9.132;2022-10-30T01:50:50;12.50;99.90
8178;DHT22;4130;48.740;9.132;2022-10-30T01:53:26;12.50;99.90
8178;DHT22;4130;48.740;9.132;2022-10-30T01:56:00;12.50;99.90
8178;DHT22;4130;48.740;9.132;2022-10-30T01:58:33;12.50;99.90
8178;DHT22;4130;48.740;9.132;2022-10-30T02:01:02;12.50;99.90
8178;DHT22;4130;48.740;9.132;2022-10-30T02:03:30;12.50;99.90
8178;DHT22;4130;48.740;9.132;2022-10-30T02:05:56;12.50;99.90
8178;DHT22;4130;48.740;9.132;2022-10-30T02:08:23;12.50;99.90
8178;DHT22;4130;48.740;9.132;2022-10-30T02:10:51;12.50;99.90
8178;DHT22;4130;48.740;9.132;2022-10-30T02:13:19;12.50;99.90
8178;DHT22;4130;48.740;9.132;2022-10-30T02:15:48;12.50;99.90
8178;DHT22;4130;48.740;9.132;2022-10-30T02:18:15;12.50;99.90
8178;DHT22;4130;48.740;9.132;2022-10-30T02:20:43;12.50;99.90
8178;DHT22;4130;48.740;9.132;2022-10-30T02:23:10;12.50;99.90
8178;DHT22;4130;48.740;9.132;2022-10-30T02:25:43;12.50;99.90
8178;DHT22;4130;48.740;9.132;2022-10-30T02:28:09;12.50;99.90
8178;DHT22;4130;48.740;9.132;2022-10-30T02:30:36;12.40;99.90
8178;DHT22;4130;48.740;9.132;2022-10-30T02:33:03;12.40;99.90
8178;DHT22;4130;48.740;9.132;2022-10-30T02:35:30;12.40;99.90
8178;DHT22;4130;48.740;9.132;2022-10-30T02:37:58;12.40;99.90
8178;DHT22;4130;48.740;9.132;2022-10-30T02:40:24;12.40;99.90
8178;DHT22;4130;48.740;9.132;2022-10-30T02:42:52;12.30;99.90
8178;DHT22;4130;48.740;9.132;2022-10-30T02:45:19;12.40;99.90
8178;DHT22;4130;48.740;9.132;2022-10-30T02:47:46;12.50;99.90
8178;DHT22;4130;48.740;9.132;2022-10-30T02:50:13;12.40;99.90
8178;DHT22;4130;48.740;9.132;2022-10-30T02:52:40;12.40;99.90
8178;DHT22;4130;48.740;9.132;2022-10-30T02:55:08;12.30;99.90
8178;DHT22;4130;48.740;9.132;2022-10-30T02:57:35;12.30;99.90
8178;DHT22;4130;48.740;9.132;2022-10-30T03:00:03;12.30;99.90
8178;DHT22;4130;48.740;9.132;2022-10-30T03:02:29;12.20;99.90
8178;DHT22;4130;48.740;9.132;2022-10-30T03:04:56;12.30;99.90
8178;DHT22;4130;48.740;9.132;2022-10-30T03:07:23;12.20;99.90
8178;DHT22;4130;48.740;9.132;2022-10-30T03:09:49;12.20;99.90
8178;DHT22;4130;48.740;9.132;2022-10-30T03:12:17;12.20;99.90
8178;DHT22;4130;48.740;9.132;2022-10-30T03:14:44;12.20;99.90
8178;DHT22;4130;48.740;9.132;2022-10-30T03:17:11;12.20;99.90
8178;DHT22;4130;48.740;9.132;2022-10-30T03:19:38;12.20;99.90
8178;DHT22;4130;48.740;9.132;2022-10-30T03:22:05;12.20;99.90
8178;DHT22;4130;48.740;9.132;2022-10-30T03:24:32;12.20;99.90
8178;DHT22;4130;48.740;9.132;2022-10-30T03:26:59;12.20;99.90
8178;DHT22;4130;48.740;9.132;2022-10-30T03:29:27;12.30;99.90
8178;DHT22;4130;48.740;9.132;2022-10-30T03:31:54;12.30;99.90
8178;DHT22;4130;48.740;9.132;2022-10-30T03:34:21;12.40;99.90
8178;DHT22;4130;48.740;9.132;2022-10-30T03:36:47;12.40;99.90
8178;DHT22;4130;48.740;9.132;2022-10-30T03:39:14;12.30;99.90
8178;DHT22;4130;48.740;9.132;2022-10-30T03:41:41;12.30;99.90
8178;DHT22;4130;48.740;9.132;2022-10-30T03:44:08;12.20;99.90
8178;DHT22;4130;48.740;9.132;2022-10-30T03:46:37;12.00;99.90
8178;DHT22;4130;48.740;9.132;2022-10-30T03:49:03;12.00;99.90
8178;DHT22;4130;48.740;9.132;2022-10-30T03:51:30;11.90;99.90
8178;DHT22;4130;48.740;9.132;2022-10-30T03:53:57;11.80;99.90
8178;DHT22;4130;48.740;9.132;2022-10-30T03:56:23;11.70;99.90
8178;DHT22;4130;48.740;9.132;2022-10-30T03:58:50;11.70;99.90
8178;DHT22;4130;48.740;9.132;2022-10-30T04:01:17;11.60;99.90
8178;DHT22;4130;48.740;9.132;2022-10-30T04:03:45;11.60;99.90
8178;DHT22;4130;48.740;9.132;2022-10-30T04:06:12;11.50;99.90
8178;DHT22;4130;48.740;9.132;2022-10-30T04:08:38;11.50;99.90
8178;DHT22;4130;48.740;9.132;2022-10-30T04:11:05;11.50;99.90
8178;DHT22;4130;48.740;9.132;2022-10-30T04:13:32;11.40;99.90
8178;DHT22;4130;48.740;9.132;2022-10-30T04:15:59;11.40;99.90
8178;DHT22;4130;48.740;9.132;2022-10-30T04:18:25;11.30;99.90
8178;DHT22;4130;48.740;9.132;2022-10-30T04:20:54;11.20;99.90
8178;DHT22;4130;48.740;9.132;2022-10-30T04:23:21;11.20;99.90
8178;DHT22;4130;48.740;9.132;2022-10-30T04:25:48;11.20;99.90
8178;DHT22;4130;48.740;9.132;2022-10-30T04:28:15;11.10;99.90
8178;DHT22;4130;48.740;9.132;2022-10-30T04:30:42;11.10;99.90
8178;DHT22;4130;48.740;9.132;2022-10-30T04:33:11;11.00;99.90
8178;DHT22;4130;48.740;9.132;2022-10-30T04:35:39;11.00;99.90
8178;DHT22;4130;48.740;9.132;2022-10-30T04:38:09;10.90;99.90
8178;DHT22;4130;48.740;9.132;2022-10-30T04:40:38;10.90;99.90
8178;DHT22;4130;48.740;9.132;2022-10-30T04:43:06;10.90;99.90
8178;DHT22;4130;48.740;9.132;2022-10-30T04:45:33;10.90;99.90
8178;DHT22;4130;48.740;9.132;2022-10-30T04:48:01;10.80;99.90
8178;DHT22;4130;48.740;9.132;2022-10-30T04:50:28;10.80;99.90
8178;DHT22;4130;48.740;9.132;2022-10-30T04:52:59;10.90;99.90
8178;DHT22;4130;48.740;9.132;2022-10-30T04:55:28;10.90;99.90
8178;DHT22;4130;48.740;9.132;2022-10-30T04:57:55;10.90;99.90
8178;DHT22;4130;48.740;9.132;2022-10-30T05:00:23;10.80;99.90
8178;DHT22;4130;48.740;9.132;2022-10-30T05:02:50;10.80;99.90
8178;DHT22;4130;48.740;9.132;2022-10-30T05:05:16;10.80;99.90
8178;DHT22;4130;48.740;9.132;2022-10-30T05:07:43;10.80;99.90
8178;DHT22;4130;48.740;9.132;2022-10-30T05:10:11;10.80;99.90
8178;DHT22;4130;48.740;9.132;2022-10-30T05:12:40;10.70;99.90
8178;DHT22;4130;48.740;9.132;2022-10-30T05:15:08;10.70;99.90
8178;DHT22;4130;48.740;9.132;2022-10-30T05:17:34;10.70;99.90
8178;DHT22;4130;48.740;9.132;2022-10-30T05:20:01;10.70;99.90
8178;DHT22;4130;48.740;9.132;2022-10-30T05:22:28;10.60;99.90
8178;DHT22;4130;48.740;9.132;2022-10-30T05:24:55;10.60;99.90
8178;DHT22;4130;48.740;9.132;2022-10-30T05:27:21;10.60;99.90
8178;DHT22;4130;48.740;9.132;2022-10-30T05:29:49;10.60;99.90
8178;DHT22;4130;48.740;9.132;2022-10-30T05:32:16;10.50;99.90
8178;DHT22;4130;48.740;9.132;2022-10-30T05:34:43;10.50;99.90
8178;DHT22;4130;48.740;9.132;2022-10-30T05:37:10;10.50;99.90
8178;DHT22;4130;48.740;9.132;2022-10-30T05:39:37;10.50;99.90
8178;DHT22;4130;48.740;9.132;2022-10-30T05:42:03;10.40;99.90
8178;DHT22;4130;48.740;9.132;2022-10-30T05:44:30;10.40;99.90
8178;DHT22;4130;48.740;9.132;2022-10-30T05:46:58;10.30;99.90
8178;DHT22;4130;48.740;9.132;2022-10-30T05:49:25;10.30;99.90
8178;DHT22;4130;48.740;9.132;2022-10-30T05:51:51;10.30;99.90
8178;DHT22;4130;48.740;9.132;2022-10-30T05:54:18;10.30;99.90
8178;DHT22;4130;48.740;9.132;2022-10-30T05:56:45;10.30;99.90
8178;DHT22;4130;48.740;9.132;2022-10-30T05:59:12;10.30;99.90
8178;DHT22;4130;48.740;9.132;2022-10-30T06:01:38;10.30;99.90
8178;DHT22;4130;48.740;9.132;2022-10-30T06:04:07;10.30;99.90
8178;DHT22;4130;48.740;9.132;2022-10-30T06:06:34;10.30;99.90
8178;DHT22;4130;48.740;9.132;2022-10-30T06:09:00;10.30;99.90
8178;DHT22;4130;48.740;9.132;2022-10-30T06:11:27;10.30;99.90
8178;DHT22;4130;48.740;9.132;2022-10-30T06:13:54;10.40;99.90
8178;DHT22;4130;48.740;9.132;2022-10-30T06:16:20;10.50;99.90
8178;DHT22;4130;48.740;9.132;2022-10-30T06:18:47;10.60;99.90
8178;DHT22;4130;48.740;9.132;2022-10-30T06:21:15;10.60;99.90
8178;DHT22;4130;48.740;9.132;2022-10-30T06:23:42;10.60;99.90
8178;DHT22;4130;48.740;9.132;2022-10-30T06:26:08;10.50;99.90
8178;DHT22;4130;48.740;9.132;2022-10-30T06:28:35;10.50;99.90
8178;DHT22;4130;48.740;9.132;2022-10-30T06:31:02;10.50;99.90
8178;DHT22;4130;48.740;9.132;2022-10-30T06:33:28;10.50;99.90
8178;DHT22;4130;48.740;9.132;2022-10-30T06:35:55;10.50;99.90
8178;DHT22;4130;48.740;9.132;2022-10-30T06:38:23;10.40;99.90
8178;DHT22;4130;48.740;9.132;2022-10-30T06:40:50;10.40;99.90
8178;DHT22;4130;48.740;9.132;2022-10-30T06:43:17;10.40;99.90
8178;DHT22;4130;48.740;9.132;2022-10-30T06:45:43;10.40;99.90
8178;DHT22;4130;48.740;9.132;2022-10-30T06:48:10;10.50;99.90
8178;DHT22;4130;48.740;9.132;2022-10-30T06:50:37;10.50;99.90
8178;DHT22;4130;48.740;9.132;2022-10-30T06:53:04;10.50;99.90
8178;DHT22;4130;48.740;9.132;2022-10-30T06:55:32;10.50;99.90
8178;DHT22;4130;48.740;9.132;2022-10-30T06:57:58;10.60;99.90
8178;DHT22;4130;48.740;9.132;2022-10-30T07:00:25;10.60;99.90
8178;DHT22;4130;48.740;9.132;2022-10-30T07:02:56;10.60;99.90
8178;DHT22;4130;48.740;9.132;2022-10-30T07:05:22;10.70;99.90
8178;DHT22;4130;48.740;9.132;2022-10-30T07:07:49;10.70;99.90
8178;DHT22;4130;48.740;9.132;2022-10-30T07:10:16;10.70;99.90
8178;DHT22;4130;48.740;9.132;2022-10-30T07:12:51;10.70;99.90
8178;DHT22;4130;48.740;9.132;2022-10-30T07:15:18;10.80;99.90
8178;DHT22;4130;48.740;9.132;2022-10-30T07:17:54;10.80;99.90
8178;DHT22;4130;48.740;9.132;2022-10-30T07:20:21;10.90;99.90
8178;DHT22;4130;48.740;9.132;2022-10-30T07:22:48;11.00;99.90
8178;DHT22;4130;48.740;9.132;2022-10-30T07:25:15;11.00;99.90
8178;DHT22;4130;48.740;9.132;2022-10-30T07:27:42;11.10;99.90
8178;DHT22;4130;48.740;9.132;2022-10-30T07:30:12;11.10;99.90
8178;DHT22;4130;48.740;9.132;2022-10-30T07:32:39;11.10;99.90
8178;DHT22;4130;48.740;9.132;2022-10-30T07:35:06;11.20;99.90
8178;DHT22;4130;48.740;9.132;2022-10-30T07:37:33;11.30;99.90
8178;DHT22;4130;48.740;9.132;2022-10-30T07:40:00;11.30;99.90
8178;DHT22;4130;48.740;9.132;2022-10-30T07:42:27;11.40;99.90
8178;DHT22;4130;48.740;9.132;2022-10-30T07:44:53;11.40;99.90
8178;DHT22;4130;48.740;9.132;2022-10-30T07:47:21;11.60;99.90
8178;DHT22;4130;48.740;9.132;2022-10-30T07:49:48;11.60;99.90
8178;DHT22;4130;48.740;9.132;2022-10-30T07:52:15;11.70;99.90
8178;DHT22;4130;48.740;9.132;2022-10-30T07:54:42;11.80;99.90
8178;DHT22;4130;48.740;9.132;2022-10-30T07:57:09;11.80;99.90
8178;DHT22;4130;48.740;9.132;2022-10-30T07:59:35;11.90;99.90
8178;DHT22;4130;48.740;9.132;2022-10-30T08:02:02;12.10;99.90
8178;DHT22;4130;48.740;9.132;2022-10-30T08:04:30;12.20;99.90
8178;DHT22;4130;48.740;9.132;2022-10-30T08:06:57;12.30;99.90
8178;DHT22;4130;48.740;9.132;2022-10-30T08:09:23;12.40;99.90
8178;DHT22;4130;48.740;9.132;2022-10-30T08:11:50;12.40;99.90
8178;DHT22;4130;48.740;9.132;2022-10-30T08:14:17;12.50;99.90
8178;DHT22;4130;48.740;9.132;2022-10-30T08:16:43;12.50;99.90
8178;DHT22;4130;48.740;9.132;2022-10-30T08:19:10;12.60;99.90
8178;DHT22;4130;48.740;9.132;2022-10-30T08:21:38;12.70;99.90
8178;DHT22;4130;48.740;9.132;2022-10-30T08:24:05;12.70;99.90
8178;DHT22;4130;48.740;9.132;2022-10-30T08:26:32;12.90;99.90
8178;DHT22;4130;48.740;9.132;2022-10-30T08:28:59;13.00;99.90
8178;DHT22;4130;48.740;9.132;2022-10-30T08:31:27;13.10;99.90
8178;DHT22;4130;48.740;9.132;2022-10-30T08:33:55;13.20;99.90
8178;DHT22;4130;48.740;9.132;2022-10-30T08:36:34;13.40;99.90
8178;DHT22;4130;48.740;9.132;2022-10-30T08:39:07;13.50;99.90
8178;DHT22;4130;48.740;9.132;2022-10-30T08:41:35;13.70;99.90
8178;DHT22;4130;48.740;9.132;2022-10-30T08:44:03;13.80;99.90
8178;DHT22;4130;48.740;9.132;2022-10-30T08:46:31;14.00;99.90
8178;DHT22;4130;48.740;9.132;2022-10-30T08:48:59;14.20;99.90
8178;DHT22;4130;48.740;9.132;2022-10-30T08:51:27;14.30;99.90
8178;DHT22;4130;48.740;9.132;2022-10-30T08:53:53;14.50;99.90
8178;DHT22;4130;48.740;9.132;2022-10-30T08:56:21;14.70;99.90
8178;DHT22;4130;48.740;9.132;2022-10-30T08:58:49;14.90;99.90
8178;DHT22;4130;48.740;9.132;2022-10-30T09:01:16;15.10;99.90
8178;DHT22;4130;48.740;9.132;2022-10-30T09:03:43;15.30;99.90
8178;DHT22;4130;48.740;9.132;2022-10-30T09:06:10;15.40;99.90
8178;DHT22;4130;48.740;9.132;2022-10-30T09:08:37;15.60;99.90
8178;DHT22;4130;48.740;9.132;2022-10-30T09:11:04;15.80;99.90
8178;DHT22;4130;48.740;9.132;2022-10-30T09:13:33;15.90;99.90
8178;DHT22;4130;48.740;9.132;2022-10-30T09:16:00;16.00;99.90
8178;DHT22;4130;48.740;9.132;2022-10-30T09:18:27;16.20;99.90
8178;DHT22;4130;48.740;9.132;2022-10-30T09:20:54;16.40;99.90
8178;DHT22;4130;48.740;9.132;2022-10-30T09:23:21;16.60;99.90
8178;DHT22;4130;48.740;9.132;2022-10-30T09:25:47;16.80;99.90
8178;DHT22;4130;48.740;9.132;2022-10-30T09:28:14;17.00;99.90
8178;DHT22;4130;48.740;9.132;2022-10-30T09:30:42;17.20;99.90
8178;DHT22;4130;48.740;9.132;2022-10-30T09:33:09;17.50;99.90
8178;DHT22;4130;48.740;9.132;2022-10-30T09:35:36;17.70;99.90
8178;DHT22;4130;48.740;9.132;2022-10-30T09:38:02;18.00;99.90
8178;DHT22;4130;48.740;9.132;2022-10-30T09:40:41;18.20;99.90
8178;DHT22;4130;48.740;9.132;2022-10-30T09:43:18;18.40;99.90
8178;DHT22;4130;48.740;9.132;2022-10-30T09:48:53;18.80;99.90
8178;DHT22;4130;48.740;9.132;2022-10-30T09:51:34;18.90;99.90
8178;DHT22;4130;48.740;9.132;2022-10-30T09:54:11;19.00;99.90
8178;DHT22;4130;48.740;9.132;2022-10-30T09:56:44;19.20;99.90
8178;DHT22;4130;48.740;9.132;2022-10-30T09:59:21;19.40;99.90
8178;DHT22;4130;48.740;9.132;2022-10-30T10:01:54;19.50;99.90
8178;DHT22;4130;48.740;9.132;2022-10-30T10:04:27;19.60;99.90
8178;DHT22;4130;48.740;9.132;2022-10-30T10:07:00;19.80;99.90
8178;DHT22;4130;48.740;9.132;2022-10-30T10:09:28;20.00;99.90
8178;DHT22;4130;48.740;9.132;2022-10-30T10:11:59;20.10;99.90
8178;DHT22;4130;48.740;9.132;2022-10-30T10:14:30;20.10;99.90
8178;DHT22;4130;48.740;9.132;2022-10-30T10:17:01;20.20;99.90
8178;DHT22;4130;48.740;9.132;2022-10-30T10:19:31;20.30;99.90
8178;DHT22;4130;48.740;9.132;2022-10-30T10:22:05;20.40;99.90
8178;DHT22;4130;48.740;9.132;2022-10-30T10:24:34;20.50;99.90
8178;DHT22;4130;48.740;9.132;2022-10-30T10:27:09;20.60;99.90
8178;DHT22;4130;48.740;9.132;2022-10-30T10:29:45;20.70;99.90
8178;DHT22;4130;48.740;9.132;2022-10-30T10:32:39;21.00;99.90
8178;DHT22;4130;48.740;9.132;2022-10-30T10:35:30;21.10;99.90
8178;DHT22;4130;48.740;9.132;2022-10-30T10:38:09;21.20;99.90
8178;DHT22;4130;48.740;9.132;2022-10-30T10:40:44;21.30;99.90
8178;DHT22;4130;48.740;9.132;2022-10-30T10:43:22;21.50;99.90
8178;DHT22;4130;48.740;9.132;2022-10-30T10:45:57;22.30;99.90
8178;DHT22;4130;48.740;9.132;2022-10-30T10:48:38;22.40;99.90
8178;DHT22;4130;48.740;9.132;2022-10-30T10:51:11;22.40;99.90
8178;DHT22;4130;48.740;9.132;2022-10-30T10:53:42;22.50;99.90
8178;DHT22;4130;48.740;9.132;2022-10-30T10:56:11;22.60;99.90
8178;DHT22;4130;48.740;9.132;2022-10-30T10:58:44;22.70;99.90
8178;DHT22;4130;48.740;9.132;2022-10-30T11:01:13;22.80;99.90
8178;DHT22;4130;48.740;9.132;2022-10-30T11:03:53;22.90;99.90
8178;DHT22;4130;48.740;9.132;2022-10-30T11:06:23;23.10;99.90
8178;DHT22;4130;48.740;9.132;2022-10-30T11:08:53;23.20;99.90
8178;DHT22;4130;48.740;9.132;2022-10-30T11:11:26;23.30;99.90
8178;DHT22;4130;48.740;9.132;2022-10-30T11:13:53;23.40;99.90
8178;DHT22;4130;48.740;9.132;2022-10-30T11:16:26;23.50;99.90
8178;DHT22;4130;48.740;9.132;2022-10-30T11:18:58;23.50;99.90
8178;DHT22;4130;48.740;9.132;2022-10-30T11:21:26;23.60;99.90
8178;DHT22;4130;48.740;9.132;2022-10-30T11:23:54;23.60;99.90
8178;DHT22;4130;48.740;9.132;2022-10-30T11:26:32;23.60;99.90
8178;DHT22;4130;48.740;9.132;2022-10-30T11:29:03;23.70;99.90
8178;DHT22;4130;48.740;9.132;2022-10-30T11:31:32;23.80;99.90
8178;DHT22;4130;48.740;9.132;2022-10-30T11:34:28;24.00;99.90
8178;DHT22;4130;48.740;9.132;2022-10-30T11:36:56;23.90;99.90
8178;DHT22;4130;48.740;9.132;2022-10-30T11:39:24;24.00;99.90
8178;DHT22;4130;48.740;9.132;2022-10-30T11:42:05;24.00;99.90
8178;DHT22;4130;48.740;9.132;2022-10-30T11:44:35;24.00;99.90
8178;DHT22;4130;48.740;9.132;2022-10-30T11:47:02;23.80;99.90
8178;DHT22;4130;48.740;9.132;2022-10-30T11:49:36;23.80;99.90
8178;DHT22;4130;48.740;9.132;2022-10-30T11:52:05;23.60;99.90
8178;DHT22;4130;48.740;9.132;2022-10-30T11:54:35;23.50;99.90
8178;DHT22;4130;48.740;9.132;2022-10-30T11:57:04;23.20;99.90
8178;DHT22;4130;48.740;9.132;2022-10-30T11:59:36;23.20;99.90
8178;DHT22;4130;48.740;9.132;2022-10-30T12:02:19;23.00;99.90
8178;DHT22;4130;48.740;9.132;2022-10-30T12:04:48;22.80;99.90
8178;DHT22;4130;48.740;9.132;2022-10-30T12:07:22;22.70;99.90
8178;DHT22;4130;48.740;9.132;2022-10-30T12:09:50;22.60;99.90
8178;DHT22;4130;48.740;9.132;2022-10-30T12:12:27;22.40;99.90
8178;DHT22;4130;48.740;9.132;2022-10-30T12:15:07;22.30;99.90
8178;DHT22;4130;48.740;9.132;2022-10-30T12:17:34;22.30;99.90
8178;DHT22;4130;48.740;9.132;2022-10-30T12:20:04;22.40;99.90
8178;DHT22;4130;48.740;9.132;2022-10-30T12:22:33;22.40;99.90
8178;DHT22;4130;48.740;9.132;2022-10-30T12:25:03;22.40;99.90
8178;DHT22;4130;48.740;9.132;2022-10-30T12:27:35;22.60;99.90
8178;DHT22;4130;48.740;9.132;2022-10-30T12:30:06;22.70;99.90
8178;DHT22;4130;48.740;9.132;2022-10-30T12:32:42;22.80;99.90
8178;DHT22;4130;48.740;9.132;2022-10-30T12:35:34;22.90;99.90
8178;DHT22;4130;48.740;9.132;2022-10-30T12:38:04;23.00;99.90
8178;DHT22;4130;48.740;9.132;2022-10-30T12:40:36;23.00;99.90
8178;DHT22;4130;48.740;9.132;2022-10-30T12:43:14;23.10;99.90
8178;DHT22;4130;48.740;9.132;2022-10-30T12:45:43;23.00;99.90
8178;DHT22;4130;48.740;9.132;2022-10-30T12:48:16;23.00;99.90
8178;DHT22;4130;48.740;9.132;2022-10-30T12:50:54;23.00;99.90
8178;DHT22;4130;48.740;9.132;2022-10-30T12:53:28;23.10;99.90
8178;DHT22;4130;48.740;9.132;2022-10-30T12:56:00;23.00;99.90
8178;DHT22;4130;48.740;9.132;2022-10-30T12:58:35;23.00;99.90
8178;DHT22;4130;48.740;9.132;2022-10-30T13:01:11;22.90;99.90
8178;DHT22;4130;48.740;9.132;2022-10-30T13:03:47;22.80;99.90
8178;DHT22;4130;48.740;9.132;2022-10-30T13:06:21;22.80;99.90
8178;DHT22;4130;48.740;9.132;2022-10-30T13:09:01;22.80;99.90
8178;DHT22;4130;48.740;9.132;2022-10-30T13:11:38;22.90;99.90
8178;DHT22;4130;48.740;9.132;2022-10-30T13:14:12;22.90;99.90
8178;DHT22;4130;48.740;9.132;2022-10-30T13:16:39;23.00;99.90
8178;DHT22;4130;48.740;9.132;2022-10-30T13:19:10;23.00;99.90
8178;DHT22;4130;48.740;9.132;2022-10-30T13:21:45;23.10;99.90
8178;DHT22;4130;48.740;9.132;2022-10-30T13:24:17;23.10;99.90
8178;DHT22;4130;48.740;9.132;2022-10-30T13:26:51;23.10;99.90
8178;DHT22;4130;48.740;9.132;2022-10-30T13:29:22;22.90;99.90
8178;DHT22;4130;48.740;9.132;2022-10-30T13:32:01;22.80;99.90
8178;DHT22;4130;48.740;9.132;2022-10-30T13:34:39;22.60;99.90
8178;DHT22;4130;48.740;9.132;2022-10-30T13:37:13;22.60;99.90
8178;DHT22;4130;48.740;9.132;2022-10-30T13:39:47;22.60;99.90
8178;DHT22;4130;48.740;9.132;2022-10-30T13:42:37;22.60;99.90
8178;DHT22;4130;48.740;9.132;2022-10-30T13:45:20;22.60;99.90
8178;DHT22;4130;48.740;9.132;2022-10-30T13:47:57;22.60;99.90
8178;DHT22;4130;48.740;9.132;2022-10-30T13:50:37;22.60;99.90
8178;DHT22;4130;48.740;9.132;2022-10-30T13:53:13;22.50;99.90
8178;DHT22;4130;48.740;9.132;2022-10-30T13:55:43;22.50;99.90
8178;DHT22;4130;48.740;9.132;2022-10-30T13:58:16;22.50;99.90
8178;DHT22;4130;48.740;9.132;2022-10-30T14:00:59;22.50;99.90
8178;DHT22;4130;48.740;9.132;2022-10-30T14:03:38;22.50;99.90
8178;DHT22;4130;48.740;9.132;2022-10-30T14:06:11;22.50;99.90
8178;DHT22;4130;48.740;9.132;2022-10-30T14:08:47;22.50;99.90
8178;DHT22;4130;48.740;9.132;2022-10-30T14:11:16;22.40;99.90
8178;DHT22;4130;48.740;9.132;2022-10-30T14:13:52;22.20;99.90
8178;DHT22;4130;48.740;9.132;2022-10-30T14:16:38;22.10;99.90
8178;DHT22;4130;48.740;9.132;2022-10-30T14:19:07;21.90;99.90
8178;DHT22;4130;48.740;9.132;2022-10-30T14:21:43;21.60;99.90
8178;DHT22;4130;48.740;9.132;2022-10-30T14:24:17;21.40;99.90
8178;DHT22;4130;48.740;9.132;2022-10-30T14:26:47;21.30;99.90
8178;DHT22;4130;48.740;9.132;2022-10-30T14:29:37;21.10;99.90
8178;DHT22;4130;48.740;9.132;2022-10-30T14:32:31;20.90;99.90
8178;DHT22;4130;48.740;9.132;2022-10-30T14:34:59;20.80;99.90
8178;DHT22;4130;48.740;9.132;2022-10-30T14:37:54;20.60;99.90
8178;DHT22;4130;48.740;9.132;2022-10-30T14:40:39;20.50;99.90
8178;DHT22;4130;48.740;9.132;2022-10-30T14:43:09;20.30;99.90
8178;DHT22;4130;48.740;9.132;2022-10-30T14:45:43;20.20;99.90
8178;DHT22;4130;48.740;9.132;2022-10-30T14:48:14;20.10;99.90
8178;DHT22;4130;48.740;9.132;2022-10-30T14:50:55;20.10;99.90
8178;DHT22;4130;48.740;9.132;2022-10-30T14:53:33;19.90;99.90
8178;DHT22;4130;48.740;9.132;2022-10-30T14:56:08;19.90;99.90
8178;DHT22;4130;48.740;9.132;2022-10-30T14:58:37;19.80;99.90
8178;DHT22;4130;48.740;9.132;2022-10-30T15:01:26;19.70;99.90
8178;DHT22;4130;48.740;9.132;2022-10-30T15:04:06;19.70;99.90
8178;DHT22;4130;48.740;9.132;2022-10-30T15:06:42;19.60;99.90
8178;DHT22;4130;48.740;9.132;2022-10-30T15:09:21;19.60;99.90
8178;DHT22;4130;48.740;9.132;2022-10-30T15:12:01;19.40;99.90
8178;DHT22;4130;48.740;9.132;2022-10-30T15:14:33;19.30;99.90
8178;DHT22;4130;48.740;9.132;2022-10-30T15:17:01;19.20;99.90
8178;DHT22;4130;48.740;9.132;2022-10-30T15:19:29;19.20;99.90
8178;DHT22;4130;48.740;9.132;2022-10-30T15:21:57;19.10;99.90
8178;DHT22;4130;48.740;9.132;2022-10-30T15:24:25;19.00;99.90
8178;DHT22;4130;48.740;9.132;2022-10-30T15:26:56;18.90;99.90
8178;DHT22;4130;48.740;9.132;2022-10-30T15:29:25;18.80;99.90
8178;DHT22;4130;48.740;9.132;2022-10-30T15:31:58;18.70;99.90
8178;DHT22;4130;48.740;9.132;2022-10-30T15:34:26;18.60;99.90
8178;DHT22;4130;48.740;9.132;2022-10-30T15:36:53;18.50;99.90
8178;DHT22;4130;48.740;9.132;2022-10-30T15:39:20;18.40;99.90
8178;DHT22;4130;48.740;9.132;2022-10-30T15:41:49;18.30;99.90
8178;DHT22;4130;48.740;9.132;2022-10-30T15:44:21;18.20;99.90
8178;DHT22;4130;48.740;9.132;2022-10-30T15:46:50;18.10;99.90
8178;DHT22;4130;48.740;9.132;2022-10-30T15:49:23;18.00;99.90
8178;DHT22;4130;48.740;9.132;2022-10-30T15:51:52;17.80;99.90
8178;DHT22;4130;48.740;9.132;2022-10-30T15:54:20;17.70;99.90
8178;DHT22;4130;48.740;9.132;2022-10-30T15:56:51;17.60;99.90
8178;DHT22;4130;48.740;9.132;2022-10-30T15:59:22;17.50;99.90
8178;DHT22;4130;48.740;9.132;2022-10-30T16:01:52;17.40;99.90
8178;DHT22;4130;48.740;9.132;2022-10-30T16:04:21;17.30;99.90
8178;DHT22;4130;48.740;9.132;2022-10-30T16:06:49;17.20;99.90
8178;DHT22;4130;48.740;9.132;2022-10-30T16:09:16;17.10;99.90
8178;DHT22;4130;48.740;9.132;2022-10-30T16:11:43;17.00;99.90
8178;DHT22;4130;48.740;9.132;2022-10-30T16:14:14;16.80;99.90
8178;DHT22;4130;48.740;9.132;2022-10-30T16:16:44;16.70;99.90
8178;DHT22;4130;48.740;9.132;2022-10-30T16:19:18;16.50;99.90
8178;DHT22;4130;48.740;9.132;2022-10-30T16:21:47;16.40;99.90
8178;DHT22;4130;48.740;9.132;2022-10-30T16:24:15;16.30;99.90
8178;DHT22;4130;48.740;9.132;2022-10-30T16:26:43;16.20;99.90